Meadow, South Dakota
Current Conditions -  °F | °C
As of 2:53 PM on Sunday 25 Jan 2015 (Local Time) from KHEI Reporting Station
Overcast Overcast  
Wind Chill: 42°   Ceiling: 6000
Heat Index: 45°   Visibility: 10mi
Dew Point: 28°   Wind: 6mph
Humidity: 52%   Direction: 190°S
Pressure: 29.91"   Gusts: NA
Location:  45.53°N, 102.22°W
Report Text: KHEI 252153Z AUTO 19005KT 10SM BKN060 OVC075 07/M02 A2991 RMK AO2 SLP147 T00721022
Loading
Personal Weather Stations






























Interactive Weather Map New forecast layout! Learn more

10-Day Weather Forecast

Advertisements
Track Severe Weather on mobile